地図

経路データ

SID SEASON NUMBER BASIN SUBBASIN NAME ISO_TIME NATURE LAT LON WMO_WIND WMO_PRES WMO_AGENCY TRACK_TYPE DIST2LAND LANDFALL IFLAG USA_AGENCY USA_ATCF_ID USA_LAT USA_LON USA_RECORD USA_STATUS USA_WIND USA_PRES USA_SSHS USA_R34_NE USA_R34_SE USA_R34_SW USA_R34_NW USA_R50_NE USA_R50_SE USA_R50_SW USA_R50_NW USA_R64_NE USA_R64_SE USA_R64_SW USA_R64_NW USA_POCI USA_ROCI USA_RMW USA_EYE TOKYO_LAT TOKYO_LON TOKYO_GRADE TOKYO_WIND TOKYO_PRES TOKYO_R50_DIR TOKYO_R50_LONG TOKYO_R50_SHORT TOKYO_R30_DIR TOKYO_R30_LONG TOKYO_R30_SHORT TOKYO_LAND CMA_LAT CMA_LON CMA_CAT CMA_WIND CMA_PRES HKO_LAT HKO_LON HKO_CAT HKO_WIND HKO_PRES NEWDELHI_LAT NEWDELHI_LON NEWDELHI_GRADE NEWDELHI_WIND NEWDELHI_PRES NEWDELHI_CI NEWDELHI_DP NEWDELHI_POCI REUNION_LAT REUNION_LON REUNION_TYPE REUNION_WIND REUNION_PRES REUNION_TNUM REUNION_CI REUNION_RMW REUNION_R34_NE REUNION_R34_SE REUNION_R34_SW REUNION_R34_NW REUNION_R50_NE REUNION_R50_SE REUNION_R50_SW REUNION_R50_NW REUNION_R64_NE REUNION_R64_SE REUNION_R64_SW REUNION_R64_NW BOM_LAT BOM_LON BOM_TYPE BOM_WIND BOM_PRES BOM_TNUM BOM_CI BOM_RMW BOM_R34_NE BOM_R34_SE BOM_R34_SW BOM_R34_NW BOM_R50_NE BOM_R50_SE BOM_R50_SW BOM_R50_NW BOM_R64_NE BOM_R64_SE BOM_R64_SW BOM_R64_NW BOM_ROCI BOM_POCI BOM_EYE BOM_POS_METHOD BOM_PRES_METHOD NADI_LAT NADI_LON NADI_CAT NADI_WIND NADI_PRES WELLINGTON_LAT WELLINGTON_LON WELLINGTON_WIND WELLINGTON_PRES DS824_LAT DS824_LON DS824_STAGE DS824_WIND DS824_PRES TD9636_LAT TD9636_LON TD9636_STAGE TD9636_WIND TD9636_PRES TD9635_LAT TD9635_LON TD9635_WIND TD9635_PRES TD9635_ROCI NEUMANN_LAT NEUMANN_LON NEUMANN_CLASS NEUMANN_WIND NEUMANN_PRES MLC_LAT MLC_LON MLC_CLASS MLC_WIND MLC_PRES USA_GUST BOM_GUST BOM_GUST_PER REUNION_GUST REUNION_GUST_PER USA_SEAHGT USA_SEARAD_NE USA_SEARAD_SE USA_SEARAD_SW USA_SEARAD_NW STORM_SPEED STORM_DIR
1936113N10090 1936 12 NI BB NOT_NAMED 1936-04-22 00:00:00 TS 9.50000 90.0000 main 721 721 _________O____ -1 9.50000 90.0000 TC 30 5 308
1936113N10090 1936 12 NI BB NOT_NAMED 1936-04-22 03:00:00 TS 9.66672 89.7884 main 752 752 _________PO___ -1 9.75007 89.6826 TC 38 9.50000 90.0000 1 6 309
1936113N10090 1936 12 NI BB NOT_NAMED 1936-04-22 06:00:00 TS 9.87885 89.5312 main 791 791 _________OP___ -1 10.0000 89.4000 TC 47 9.69714 89.7281 1 7 313
1936113N10090 1936 12 NI BB NOT_NAMED 1936-04-22 09:00:00 TS 10.1180 89.3006 main 822 822 _________PP___ -1 10.2625 89.1774 TC 55 9.92531 89.4649 1 7 322
1936113N10090 1936 12 NI BB NOT_NAMED 1936-04-22 12:00:00 TS 10.4079 89.1096 main 833 817 _________OP___ -1 10.6000 89.0000 TC 64 10.2158 89.2193 1 8 332
1936113N10090 1936 12 NI BB NOT_NAMED 1936-04-22 15:00:00 TS 10.8350 88.9175 main 817 785 _________PO___ -1 11.0700 88.8350 TC 64 10.6000 89.0000 4 10 340
1936113N10090 1936 12 NI BB NOT_NAMED 1936-04-22 18:00:00 TS 11.3460 88.7574 main 785 759 _________OP___ -1 11.6000 88.7000 TC 64 11.0921 88.8149 4 11 345
1936113N10090 1936 12 NI BB NOT_NAMED 1936-04-22 21:00:00 TS 11.8949 88.6227 main 759 732 _________PP___ -1 12.1525 88.5775 TC 64 11.6374 88.6678 4 11 348
1936113N10090 1936 12 NI BB NOT_NAMED 1936-04-23 00:00:00 TS 12.3820 88.5309 main 734 716 _________OP___ -1 12.6000 88.5000 TC 64 12.1640 88.5618 4 8 351
1936113N10090 1936 12 NI BB NOT_NAMED 1936-04-23 03:00:00 TS 12.7012 88.4887 main 716 705 _________PO___ -1 12.8025 88.4774 TC 64 12.6000 88.5000 4 5 357
1936113N10090 1936 12 NI BB NOT_NAMED 1936-04-23 06:00:00 TS 12.8753 88.4847 main 705 699 _________OP___ -1 12.9000 88.5000 TC 64 12.8505 88.4694 4 3 1
1936113N10090 1936 12 NI BB NOT_NAMED 1936-04-23 09:00:00 TS 13.0274 88.5086 main 699 684 _________PP___ -1 13.0500 88.5350 TC 64 13.0049 88.4823 4 3 15
1936113N10090 1936 12 NI BB NOT_NAMED 1936-04-23 12:00:00 TS 13.1534 88.5645 main 679 674 _________OP___ -1 13.2000 88.6000 TC 64 13.1068 88.5289 4 3 28
1936113N10090 1936 12 NI BB NOT_NAMED 1936-04-23 15:00:00 TS 13.2750 88.6462 main 674 659 _________PO___ -1 13.3500 88.6925 TC 64 13.2000 88.6000 4 3 31
1936113N10090 1936 12 NI BB NOT_NAMED 1936-04-23 18:00:00 TS 13.4067 88.7232 main 659 644 _________OP___ -1 13.5000 88.8000 TC 64 13.3133 88.6463 4 3 30
1936113N10090 1936 12 NI BB NOT_NAMED 1936-04-23 21:00:00 TS 13.5224 88.7942 main 644 625 _________PP___ -1 13.6124 88.8702 TC 64 13.4323 88.7182 4 3 33
1936113N10090 1936 12 NI BB NOT_NAMED 1936-04-24 00:00:00 TS 13.6926 88.9155 main 625 591 _________OP___ -1 13.8000 89.0000 TC 64 13.5851 88.8309 4 6 36
1936113N10090 1936 12 NI BB NOT_NAMED 1936-04-24 03:00:00 TS 13.9850 89.1349 main 591 549 _________PO___ -1 14.1701 89.2699 TC 64 13.8000 89.0000 4 8 36
1936113N10090 1936 12 NI BB NOT_NAMED 1936-04-24 06:00:00 TS 14.3593 89.4211 main 545 504 _________OP___ -1 14.6000 89.6000 TC 64 14.1186 89.2421 4 9 37
1936113N10090 1936 12 NI BB NOT_NAMED 1936-04-24 09:00:00 TS 14.7276 89.7198 main 504 461 _________PP___ -1 14.9575 89.9001 TC 64 14.4977 89.5395 4 10 39
1936113N10090 1936 12 NI BB NOT_NAMED 1936-04-24 12:00:00 TS 15.1015 90.0336 main 461 421 _________OP___ -1 15.3000 90.2000 TC 64 14.9030 89.8672 4 10 39
1936113N10090 1936 12 NI BB NOT_NAMED 1936-04-24 15:00:00 TS 15.4787 90.3500 main 410 385 _________PO___ -1 15.6575 90.5001 TC 64 15.3000 90.2000 4 9 39
1936113N10090 1936 12 NI BB NOT_NAMED 1936-04-24 18:00:00 TS 15.8257 90.6521 main 375 352 _________OP___ -1 16.0000 90.8000 TC 64 15.6515 90.5042 4 9 41
1936113N10090 1936 12 NI BB NOT_NAMED 1936-04-24 21:00:00 TS 16.1512 90.9576 main 342 323 _________PP___ -1 16.3150 91.1076 TC 64 15.9874 90.8077 4 9 43
1936113N10090 1936 12 NI BB NOT_NAMED 1936-04-25 00:00:00 TS 16.4523 91.2537 main 314 298 _________OP___ -1 16.6000 91.4000 TC 64 16.3046 91.1073 4 8 43
1936113N10090 1936 12 NI BB NOT_NAMED 1936-04-25 03:00:00 TS 16.7287 91.5251 main 298 272 _________PO___ -1 16.8574 91.6502 TC 64 16.6000 91.4000 4 7 44
1936113N10090 1936 12 NI BB NOT_NAMED 1936-04-25 06:00:00 TS 16.9836 91.7893 main 272 246 _________OP___ -1 17.1000 91.9000 TC 64 16.8673 91.6786 4 7 46
1936113N10090 1936 12 NI BB NOT_NAMED 1936-04-25 09:00:00 TS 17.2324 92.0716 main 246 222 _________PP___ -1 17.3500 92.1926 TC 64 17.1147 91.9507 4 7 48
1936113N10090 1936 12 NI BB NOT_NAMED 1936-04-25 12:00:00 TS 17.4774 92.3612 main 215 184 _________OP___ -1 17.6000 92.5000 TC 64 17.3548 92.2224 4 7 48
1936113N10090 1936 12 NI BB NOT_NAMED 1936-04-25 15:00:00 TS 17.7212 92.6501 main 176 145 _________PO___ -1 17.8425 92.8001 TC 64 17.6000 92.5000 4 7 48
1936113N10090 1936 12 NI BB NOT_NAMED 1936-04-25 18:00:00 TS 17.9628 92.9220 main 138 99 _________OP___ -1 18.1000 93.1000 TC 64 17.8600 92.7884 4 7 46
1936113N10090 1936 12 NI BB NOT_NAMED 1936-04-25 21:00:00 TS 18.2358 93.2118 main 99 53 _________PP___ -1 18.3901 93.3998 TC 64 18.1330 93.0865 4 8 45
1936113N10090 1936 12 NI BB NOT_NAMED 1936-04-26 00:00:00 TS 18.5097 93.4942 main 53 23 _________OP___ -1 18.7000 93.7000 TC 64 18.4145 93.3913 4 7 45
1936113N10090 1936 12 NI BB NOT_NAMED 1936-04-26 03:00:00 NR 18.7000 93.7000 main 23 __________O___ -1 TC 18.7000 93.7000 4 5 45

IBTrACS Databaseについて

本データベースは、米国NOAAが公開する1842年以降の世界の熱帯低気圧のベストトラックデータアーカイブInternational Best Track Archive for Climate Stewardship (IBTrACS)を、ウェブで閲覧しやすい形式に変換したものです。

最終更新日:2021-11-26